Time;durP1;ratioP1;P1;durP2;ratioP2;P2;SDS_P1;SDS_P2;PMS_P1;PMS_P2;Temp;Humidity;BMP_temperature;BMP_pressure;BME280_temperature;BME280_humidity;BME280_pressure;Samples;Min_cycle;Max_cycle;Signal;HPM_P1;HPM_P2
2024/03/16 00:00:34;;;;;;;;;3.00;2.00;;;;;13.57;76.12;100947.88;5072122;27;49475;-65
2024/03/16 00:02:59;;;;;;;;;3.00;1.00;;;;;13.58;76.19;100951.34;5072845;28;45379;-65
2024/03/16 00:05:25;;;;;;;;;1.50;1.25;;;;;13.60;75.41;100965.31;5065355;28;45320;-65
2024/03/16 00:07:51;;;;;;;;;2.75;1.50;;;;;13.59;75.51;100969.69;5077944;28;45471;-66
2024/03/16 00:10:16;;;;;;;;;2.00;1.25;;;;;13.58;74.97;100973.25;5067690;28;62025;-65
2024/03/16 00:12:41;;;;;;;;;0.50;0.50;;;;;13.58;75.18;100972.38;5069362;28;57528;-66
2024/03/16 00:15:07;;;;;;;;;2.75;1.00;;;;;13.60;74.35;100978.47;5081555;27;70231;-65
2024/03/16 00:17:32;;;;;;;;;2.00;2.00;;;;;13.58;74.32;100975.91;5081184;28;58732;-66
2024/03/16 00:19:58;;;;;;;;;0.00;0.00;;;;;13.57;73.90;100983.84;5072359;27;45453;-65
2024/03/16 00:22:24;;;;;;;;;2.75;1.00;;;;;13.58;74.22;100978.53;5070288;28;45474;-65
2024/03/16 00:24:49;;;;;;;;;0.75;0.75;;;;;13.59;73.39;100984.63;5075001;28;45513;-65
2024/03/16 00:27:15;;;;;;;;;3.00;1.00;;;;;13.57;73.35;100989.09;5070413;28;46917;-67
2024/03/16 00:29:40;;;;;;;;;0.00;0.00;;;;;13.54;73.10;100994.44;5072212;28;51978;-64
2024/03/16 00:32:05;;;;;;;;;0.00;0.00;;;;;13.54;72.87;100987.41;5080067;28;45338;-65
2024/03/16 00:34:31;;;;;;;;;1.00;0.00;;;;;13.55;72.34;100983.03;5069551;28;71799;-64
2024/03/16 00:36:57;;;;;;;;;1.50;0.50;;;;;13.54;72.14;100983.94;5077942;27;72122;-63
2024/03/16 00:39:23;;;;;;;;;0.00;0.00;;;;;13.53;71.95;100995.34;5070499;28;45399;-64
2024/03/16 00:41:51;;;;;;;;;1.00;0.00;;;;;13.46;72.00;100989.47;5081889;27;45272;-64
2024/03/16 00:44:18;;;;;;;;;0.00;0.00;;;;;13.45;72.24;100985.13;5074072;27;45540;-65
2024/03/16 00:46:43;;;;;;;;;0.25;0.00;;;;;13.42;71.51;100993.09;5074523;28;47266;-64
2024/03/16 00:49:08;;;;;;;;;1.00;0.00;;;;;13.37;71.74;100993.28;5076884;27;48854;-66
2024/03/16 00:51:34;;;;;;;;;1.00;0.00;;;;;13.36;72.19;100993.31;5079760;27;45667;-65
2024/03/16 00:53:59;;;;;;;;;0.50;0.00;;;;;13.32;71.74;100997.81;5082259;27;45437;-65
2024/03/16 00:56:25;;;;;;;;;1.00;0.00;;;;;13.29;71.59;100997.91;5081936;27;46939;-65
2024/03/16 00:58:50;;;;;;;;;1.00;0.00;;;;;13.27;72.03;101003.19;5082347;27;45312;-65
2024/03/16 01:01:17;;;;;;;;;1.00;0.00;;;;;13.27;71.96;101010.22;5078736;27;46889;-65
2024/03/16 01:03:45;;;;;;;;;1.00;0.00;;;;;13.25;72.00;101018.16;5078860;27;45552;-65
2024/03/16 01:06:11;;;;;;;;;1.75;0.00;;;;;13.26;71.75;101025.16;5078575;27;45276;-65
2024/03/16 01:08:36;;;;;;;;;0.00;0.00;;;;;13.27;71.72;101020.75;5076080;27;45299;-65
2024/03/16 01:11:02;;;;;;;;;0.00;0.00;;;;;13.28;71.70;101030.38;5070554;27;52427;-65
2024/03/16 01:13:28;;;;;;;;;2.00;0.00;;;;;13.28;71.80;101027.72;5069699;28;45415;-64
2024/03/16 01:15:53;;;;;;;;;0.50;0.00;;;;;13.28;72.06;101030.38;5091109;27;45468;-65
2024/03/16 01:18:19;;;;;;;;;0.00;0.00;;;;;13.30;72.17;101036.41;5081283;27;60884;-64
2024/03/16 01:20:44;;;;;;;;;0.00;0.00;;;;;13.29;72.13;101029.44;5079137;27;45483;-64
2024/03/16 01:23:17;;;;;;;;;0.00;0.00;;;;;13.25;71.92;101027.81;5077272;27;45244;-64
2024/03/16 01:25:42;;;;;;;;;1.50;0.00;;;;;13.22;71.76;101035.81;5080588;27;46411;-64
2024/03/16 01:28:07;;;;;;;;;1.00;0.00;;;;;13.20;72.12;101030.59;5079531;27;45291;-64
2024/03/16 01:30:33;;;;;;;;;0.00;0.00;;;;;13.15;71.60;101032.50;5079499;27;58519;-64
2024/03/16 01:32:58;;;;;;;;;0.75;0.00;;;;;13.14;71.58;101033.44;5065087;27;65247;-64
2024/03/16 01:35:23;;;;;;;;;0.00;0.00;;;;;13.10;71.75;101040.56;5068111;28;73027;-64
2024/03/16 01:37:51;;;;;;;;;0.00;0.00;;;;;13.10;71.56;101048.44;5079791;27;45268;-64
2024/03/16 01:40:16;;;;;;;;;2.00;0.00;;;;;13.11;71.48;101052.78;5070602;27;45403;-64
2024/03/16 01:42:41;;;;;;;;;0.00;0.00;;;;;13.11;72.00;101057.19;5079847;27;45509;-64
2024/03/16 01:45:11;;;;;;;;;0.00;0.00;;;;;13.12;71.65;101058.91;5069689;27;55302;-63
2024/03/16 01:47:37;;;;;;;;;0.00;0.00;;;;;13.13;71.82;101051.88;5080525;27;45245;-64
2024/03/16 01:50:03;;;;;;;;;0.00;0.00;;;;;13.14;72.02;101056.22;5081841;27;45274;-65
2024/03/16 01:52:28;;;;;;;;;0.00;0.00;;;;;13.16;71.58;101068.41;5067774;27;45386;-65
2024/03/16 01:54:54;;;;;;;;;0.00;0.00;;;;;13.16;71.68;101067.56;5081353;27;46834;-64
2024/03/16 01:57:19;;;;;;;;;0.00;0.00;;;;;13.12;72.03;101066.81;5066829;28;72089;-65
2024/03/16 01:59:45;;;;;;;;;1.00;0.00;;;;;13.10;72.07;101066.84;5071674;27;69625;-64
2024/03/16 02:02:33;;;;;;;;;0.50;0.00;;;;;13.13;72.42;101067.66;5074634;28;58851;-64
2024/03/16 02:05:03;;;;;;;;;1.75;0.00;;;;;13.09;72.51;101066.88;5074508;28;46182;-64
2024/03/16 02:07:30;;;;;;;;;0.00;0.00;;;;;13.07;72.29;101072.19;5069729;27;45375;-64
2024/03/16 02:09:57;;;;;;;;;0.00;0.00;;;;;13.06;72.69;101061.72;5079787;27;45375;-64
2024/03/16 02:12:22;;;;;;;;;0.00;0.00;;;;;13.03;72.82;101069.69;5077995;27;45347;-64
2024/03/16 02:14:48;;;;;;;;;0.00;0.00;;;;;13.02;72.83;101068.00;5069135;27;46201;-64
2024/03/16 02:17:13;;;;;;;;;0.00;0.00;;;;;13.01;72.79;101072.38;5074427;28;45407;-64
2024/03/16 02:19:38;;;;;;;;;1.25;0.00;;;;;13.01;73.38;101071.50;5073921;28;69272;-65
2024/03/16 02:22:05;;;;;;;;;0.00;0.00;;;;;13.02;73.30;101075.88;5069401;27;70394;-63
2024/03/16 02:24:34;;;;;;;;;1.00;0.00;;;;;13.02;73.01;101083.75;5069522;27;46739;-64
2024/03/16 02:26:59;;;;;;;;;1.00;0.00;;;;;13.04;73.48;101084.56;5074147;27;45622;-64
2024/03/16 02:29:27;;;;;;;;;1.00;0.00;;;;;13.04;73.13;101082.78;5074537;28;45379;-63
2024/03/16 02:31:55;;;;;;;;;1.00;0.00;;;;;13.04;73.29;101082.78;5064136;28;45522;-63
2024/03/16 02:34:21;;;;;;;;;1.00;0.00;;;;;13.06;73.54;101090.63;5066103;28;45487;-63
2024/03/16 02:36:47;;;;;;;;;0.00;0.00;;;;;13.07;73.08;101092.34;5069329;27;73237;-64
2024/03/16 02:39:12;;;;;;;;;0.00;0.00;;;;;13.05;73.35;101091.53;5070579;27;45220;-64
2024/03/16 02:41:38;;;;;;;;;0.25;0.00;;;;;13.04;73.45;101100.34;5072916;28;47557;-64
2024/03/16 02:44:03;;;;;;;;;0.00;0.00;;;;;13.04;73.22;101103.81;5075881;27;73235;-64
2024/03/16 02:46:28;;;;;;;;;0.00;0.00;;;;;13.04;73.40;101093.31;5066456;27;72366;-63
2024/03/16 02:48:54;;;;;;;;;0.00;0.00;;;;;13.06;73.28;101101.13;5066072;28;46016;-63
2024/03/16 02:51:20;;;;;;;;;1.50;0.00;;;;;13.05;73.69;101104.66;5061865;27;45355;-63
2024/03/16 02:53:45;;;;;;;;;0.00;0.00;;;;;13.06;73.26;101111.66;5072773;28;45888;-63
2024/03/16 02:56:12;;;;;;;;;0.00;0.00;;;;;13.06;73.39;101106.38;5067561;27;60845;-64
2024/03/16 02:58:38;;;;;;;;;0.00;0.00;;;;;13.05;73.67;101102.91;5080086;27;45306;-64
2024/03/16 03:01:04;;;;;;;;;0.00;0.00;;;;;13.04;73.32;101111.69;5068457;28;45406;-64
2024/03/16 03:03:29;;;;;;;;;0.00;0.00;;;;;13.07;73.55;101116.00;5077733;27;72882;-64
2024/03/16 03:05:54;;;;;;;;;2.50;0.00;;;;;13.06;73.54;101120.38;5094996;27;71904;-63
2024/03/16 03:08:20;;;;;;;;;0.00;0.00;;;;;13.08;73.31;101122.97;5076207;27;65128;-63
2024/03/16 03:10:45;;;;;;;;;1.00;0.00;;;;;13.10;73.01;101121.13;5073479;28;69014;-63
2024/03/16 03:13:10;;;;;;;;;0.00;0.00;;;;;13.10;73.19;101124.66;5067067;27;74790;-63
2024/03/16 03:15:36;;;;;;;;;0.00;0.00;;;;;13.09;72.44;101132.56;5073489;27;73095;-63
2024/03/16 03:18:02;;;;;;;;;0.00;0.00;;;;;13.07;72.44;101132.63;5073660;28;45306;-64
2024/03/16 03:20:28;;;;;;;;;0.00;0.00;;;;;13.06;72.65;101133.53;5074063;28;45585;-64
2024/03/16 03:22:53;;;;;;;;;1.00;0.00;;;;;13.03;72.29;101128.38;5067278;27;46081;-64
2024/03/16 03:25:21;;;;;;;;;0.00;0.00;;;;;13.00;72.41;101133.72;5079918;27;45441;-63
2024/03/16 03:27:46;;;;;;;;;0.00;0.00;;;;;13.01;72.31;101138.06;5069022;27;45441;-64
2024/03/16 03:30:12;;;;;;;;;0.00;0.00;;;;;13.02;72.33;101146.81;5079737;27;45490;-63
2024/03/16 03:32:37;;;;;;;;;0.00;0.00;;;;;13.01;72.52;101145.09;5075189;27;75502;-63
2024/03/16 03:35:03;;;;;;;;;0.00;0.00;;;;;13.00;72.70;101146.84;5075415;27;72185;-63
2024/03/16 03:37:29;;;;;;;;;0.00;0.00;;;;;12.99;72.40;101154.78;5075020;28;45299;-64
2024/03/16 03:39:54;;;;;;;;;0.00;0.00;;;;;12.96;72.70;101145.25;5072292;27;45444;-63
2024/03/16 03:42:24;;;;;;;;;1.00;0.00;;;;;12.96;72.87;101160.13;5073571;28;47273;-63
2024/03/16 03:45:00;;;;;;;;;0.00;0.00;;;;;12.96;72.41;101162.75;5075531;27;45361;-63
2024/03/16 03:47:40;;;;;;;;;1.00;0.00;;;;;12.94;72.35;101157.53;5078992;27;45378;-64
2024/03/16 03:50:06;;;;;;;;;0.00;0.00;;;;;12.94;72.37;101167.19;5081569;27;45413;-63
2024/03/16 03:52:31;;;;;;;;;0.75;0.00;;;;;12.95;72.38;101159.25;5070734;27;47324;-64
2024/03/16 03:54:57;;;;;;;;;1.00;0.00;;;;;12.91;72.75;101166.38;5074719;27;66213;-63
2024/03/16 03:57:22;;;;;;;;;0.00;0.00;;;;;12.90;72.49;101169.91;5070223;27;69584;-64
2024/03/16 03:59:47;;;;;;;;;1.00;0.00;;;;;12.91;72.71;101184.78;5078133;27;45792;-63
2024/03/16 04:02:13;;;;;;;;;0.00;0.00;;;;;12.89;72.51;101181.34;5071648;27;75498;-63
2024/03/16 04:04:40;;;;;;;;;2.00;0.00;;;;;12.90;72.00;101180.41;5092210;27;45418;-64
2024/03/16 04:07:05;;;;;;;;;0.00;0.00;;;;;12.91;72.21;101189.16;5081055;28;45402;-64
2024/03/16 04:09:31;;;;;;;;;1.00;0.00;;;;;12.89;72.44;101193.59;5082740;27;45390;-64
2024/03/16 04:11:56;;;;;;;;;0.00;0.00;;;;;12.88;72.53;101186.63;5078216;27;46192;-64
2024/03/16 04:14:22;;;;;;;;;0.00;0.00;;;;;12.89;72.63;101198.84;5070022;27;45468;-64
2024/03/16 04:16:48;;;;;;;;;0.00;0.00;;;;;12.89;72.55;101204.09;5074124;27;45316;-64
2024/03/16 04:19:14;;;;;;;;;0.00;0.00;;;;;12.89;72.55;101202.34;5073904;27;45437;-64
2024/03/16 04:21:42;;;;;;;;;0.00;0.00;;;;;12.90;72.92;101204.06;5075798;27;46371;-64
2024/03/16 04:24:07;;;;;;;;;0.00;0.00;;;;;12.89;72.74;101198.84;5076860;27;45157;-63
2024/03/16 04:26:32;;;;;;;;;0.25;0.00;;;;;12.88;73.17;101200.63;5071326;27;64100;-63
2024/03/16 04:28:58;;;;;;;;;0.00;0.00;;;;;12.89;72.67;101204.97;5079355;27;62822;-63
2024/03/16 04:31:23;;;;;;;;;0.00;0.00;;;;;12.89;72.92;101212.84;5078273;27;75380;-63
2024/03/16 04:33:48;;;;;;;;;1.00;0.00;;;;;12.87;72.53;101208.53;5078928;27;72071;-63
2024/03/16 04:36:14;;;;;;;;;0.00;0.00;;;;;12.88;73.11;101213.75;5072495;28;45532;-63
2024/03/16 04:38:39;;;;;;;;;0.00;0.00;;;;;12.88;73.13;101210.28;5080283;27;74301;-63
2024/03/16 04:41:04;;;;;;;;;0.00;0.00;;;;;12.87;73.34;101211.16;5074706;27;72595;-63
2024/03/16 04:43:30;;;;;;;;;0.00;0.00;;;;;12.88;73.35;101224.25;5065332;27;72187;-63
2024/03/16 04:45:56;;;;;;;;;0.00;0.00;;;;;12.88;73.17;101223.41;5079779;27;45370;-62
2024/03/16 04:48:21;;;;;;;;;0.00;0.00;;;;;12.89;73.51;101228.63;5078677;27;45352;-63
2024/03/16 04:50:46;;;;;;;;;0.00;0.00;;;;;12.90;73.04;101237.34;5078590;27;45485;-64
2024/03/16 04:53:12;;;;;;;;;0.00;0.00;;;;;12.91;73.19;101246.97;5075567;27;61518;-63
2024/03/16 04:55:38;;;;;;;;;0.00;0.00;;;;;12.91;73.29;101247.81;5073402;27;45423;-63
2024/03/16 04:58:04;;;;;;;;;0.75;0.00;;;;;12.93;73.46;101260.06;5066732;27;45600;-63
2024/03/16 05:00:29;;;;;;;;;0.00;0.00;;;;;12.91;73.60;101253.06;5076691;27;46339;-63
2024/03/16 05:02:55;;;;;;;;;0.00;0.00;;;;;12.93;73.50;101252.19;5076711;27;47376;-63
2024/03/16 05:05:20;;;;;;;;;0.00;0.00;;;;;12.94;73.54;101253.88;5072853;27;68271;-63
2024/03/16 05:07:46;;;;;;;;;0.00;0.00;;;;;12.93;73.47;101255.66;5077018;27;45443;-63
2024/03/16 05:10:11;;;;;;;;;0.00;0.00;;;;;12.91;73.46;101260.09;5076649;27;75799;-63
2024/03/16 05:12:36;;;;;;;;;0.00;0.00;;;;;12.86;73.21;101257.59;5063348;28;69094;-64
2024/03/16 05:15:02;;;;;;;;;0.00;0.00;;;;;12.80;73.54;101252.53;5088913;27;56445;-63
2024/03/16 05:17:28;;;;;;;;;0.00;0.00;;;;;12.79;73.57;101266.53;5075543;27;45532;-62
2024/03/16 05:19:54;;;;;;;;;0.00;0.00;;;;;12.78;73.55;101270.06;5078735;27;45800;-63
2024/03/16 05:22:20;;;;;;;;;0.00;0.00;;;;;12.78;73.69;101282.34;5068167;27;45361;-63
2024/03/16 05:24:45;;;;;;;;;0.00;0.00;;;;;12.73;73.85;101278.09;5077124;27;45495;-63
2024/03/16 05:27:11;;;;;;;;;0.25;0.00;;;;;12.75;73.98;101292.94;5081014;27;45355;-62
2024/03/16 05:29:36;;;;;;;;;0.00;0.00;;;;;12.74;74.32;101297.31;5077172;28;46812;-63
2024/03/16 05:32:03;;;;;;;;;0.00;0.00;;;;;12.75;74.09;101298.19;5080969;27;70744;-62
2024/03/16 05:34:28;;;;;;;;;0.00;0.00;;;;;12.71;74.51;101300.91;5076073;27;45294;-63
2024/03/16 05:36:53;;;;;;;;;0.00;0.00;;;;;12.71;74.55;101307.91;5070487;27;73092;-63
2024/03/16 05:39:19;;;;;;;;;0.00;0.00;;;;;12.70;75.21;101304.41;5077798;27;59252;-63
2024/03/16 05:41:44;;;;;;;;;0.00;0.00;;;;;12.68;74.99;101298.34;5075012;27;45296;-63
2024/03/16 05:44:12;;;;;;;;;0.00;0.00;;;;;12.66;75.74;101299.28;5076515;28;57611;-62
2024/03/16 05:46:38;;;;;;;;;0.00;0.00;;;;;12.64;75.49;101301.09;5080605;27;45298;-63
2024/03/16 05:49:03;;;;;;;;;0.50;0.00;;;;;12.62;75.91;101311.63;5076627;27;74355;-64
2024/03/16 05:51:28;;;;;;;;;0.00;0.00;;;;;12.59;76.38;101309.09;5071993;27;68488;-63
2024/03/16 05:53:54;;;;;;;;;0.00;0.00;;;;;12.59;76.29;101305.59;5073546;27;45308;-64
2024/03/16 05:56:20;;;;;;;;;0.00;0.00;;;;;12.54;76.12;101303.13;5067699;27;45395;-63
2024/03/16 05:58:46;;;;;;;;;0.00;0.00;;;;;12.50;76.03;101310.22;5086321;27;48347;-63
2024/03/16 06:01:11;;;;;;;;;0.00;0.00;;;;;12.49;76.43;101328.63;5091093;27;45368;-63
2024/03/16 06:03:36;;;;;;;;;0.00;0.00;;;;;12.48;76.45;101334.75;5075144;27;64222;-63
2024/03/16 06:06:02;;;;;;;;;0.00;0.00;;;;;12.45;76.54;101334.84;5075258;27;66863;-64
2024/03/16 06:08:27;;;;;;;;;6.00;2.50;;;;;12.44;76.46;101333.13;5075586;28;45340;-63
2024/03/16 06:10:52;;;;;;;;;0.00;0.00;;;;;12.42;76.76;101340.19;5067093;28;45405;-63
2024/03/16 06:13:18;;;;;;;;;0.00;0.00;;;;;12.43;76.91;101352.38;5068365;27;45291;-63
2024/03/16 06:15:44;;;;;;;;;2.00;0.00;;;;;12.43;76.72;101353.28;5096632;27;45375;-62
2024/03/16 06:18:09;;;;;;;;;0.00;0.00;;;;;12.45;76.59;101354.09;5074699;27;73851;-63
2024/03/16 06:20:34;;;;;;;;;1.25;0.00;;;;;12.48;76.76;101361.00;5076583;27;45271;-63
2024/03/16 06:23:00;;;;;;;;;5.25;5.00;;;;;12.48;76.26;101359.28;5075738;27;45254;-63
2024/03/16 06:25:29;;;;;;;;;0.00;0.00;;;;;12.46;76.41;101365.44;5076014;27;64385;-62
2024/03/16 06:27:54;;;;;;;;;0.00;0.00;;;;;12.47;76.15;101375.91;5072843;27;46287;-63
2024/03/16 06:30:22;;;;;;;;;0.00;0.00;;;;;12.52;76.25;101381.06;5072078;27;46622;-63
2024/03/16 06:33:05;;;;;;;;;0.00;0.00;;;;;12.53;75.95;101395.88;5065645;27;45436;-63
2024/03/16 06:35:41;;;;;;;;;0.00;0.00;;;;;12.54;75.90;101393.22;5068034;28;45425;-63
2024/03/16 06:38:06;;;;;;;;;0.50;0.50;;;;;12.59;75.85;101401.00;5074494;27;46597;-63
2024/03/16 06:40:32;;;;;;;;;1.50;0.00;;;;;12.61;75.68;101400.97;5072904;27;69507;-62
2024/03/16 06:42:57;;;;;;;;;0.75;0.00;;;;;12.64;74.95;101408.75;5076302;27;45342;-63
2024/03/16 06:45:22;;;;;;;;;0.00;0.00;;;;;12.68;74.90;101416.53;5080133;27;45593;-63
2024/03/16 06:47:48;;;;;;;;;0.25;0.00;;;;;12.70;75.16;101414.72;5079472;27;53482;-63
2024/03/16 06:50:13;;;;;;;;;1.00;0.00;;;;;12.71;74.68;101415.56;5070551;27;66783;-63
2024/03/16 06:52:39;;;;;;;;;0.00;0.00;;;;;12.78;74.94;101424.16;5084879;27;45580;-63
2024/03/16 06:55:05;;;;;;;;;0.00;0.00;;;;;12.79;74.68;101420.66;5076741;27;45477;-63
2024/03/16 06:57:30;;;;;;;;;0.00;0.00;;;;;12.80;74.71;101422.38;5069600;27;47438;-63
2024/03/16 06:59:55;;;;;;;;;0.00;0.00;;;;;12.81;74.84;101418.84;5068112;27;69873;-63
2024/03/16 07:02:21;;;;;;;;;1.75;0.00;;;;;12.82;74.65;101416.19;5069443;27;69316;-63
2024/03/16 07:04:47;;;;;;;;;0.00;0.00;;;;;12.85;74.52;101420.47;5051300;28;45340;-63
2024/03/16 07:07:12;;;;;;;;;0.50;0.50;;;;;12.88;74.91;101423.91;5068880;27;47761;-63
2024/03/16 07:09:37;;;;;;;;;2.00;0.00;;;;;12.91;74.65;101431.72;5079200;27;70782;-63
2024/03/16 07:12:03;;;;;;;;;0.00;0.00;;;;;12.93;74.90;101425.56;5069488;27;68083;-63
2024/03/16 07:14:28;;;;;;;;;0.00;0.00;;;;;12.99;74.61;101430.66;5070094;28;45389;-63
2024/03/16 07:16:54;;;;;;;;;0.00;0.00;;;;;13.00;74.35;101432.38;5084391;27;51246;-63
2024/03/16 07:19:23;;;;;;;;;0.00;0.00;;;;;12.99;74.56;101433.28;5075540;27;45299;-62
2024/03/16 07:21:49;;;;;;;;;0.00;0.00;;;;;13.01;74.28;101441.97;5068689;27;45420;-68
2024/03/16 07:24:15;;;;;;;;;1.00;0.75;;;;;12.97;73.70;101445.59;5069152;27;45581;-64
2024/03/16 07:26:41;;;;;;;;;3.00;0.00;;;;;12.94;74.05;101445.66;5077433;27;46160;-63
2024/03/16 07:29:06;;;;;;;;;1.00;0.00;;;;;12.94;74.03;101450.91;5078168;27;45459;-62
2024/03/16 07:31:32;;;;;;;;;1.50;0.50;;;;;12.95;73.60;101455.28;5088177;27;45442;-65
2024/03/16 07:33:58;;;;;;;;;1.50;0.75;;;;;12.95;73.49;101455.28;5072296;28;60958;-63
2024/03/16 07:36:23;;;;;;;;;1.00;1.00;;;;;12.94;73.89;101458.78;5095098;27;47159;-63
2024/03/16 07:38:49;;;;;;;;;0.00;0.00;;;;;12.96;73.46;101464.88;5068737;27;71171;-63
2024/03/16 07:41:14;;;;;;;;;2.00;1.00;;;;;12.99;73.69;101478.78;5071667;28;45301;-61
2024/03/16 07:43:40;;;;;;;;;2.00;0.00;;;;;13.00;73.43;101480.53;5086228;27;45351;-64
2024/03/16 07:46:06;;;;;;;;;0.50;0.00;;;;;13.03;73.02;101480.47;5070956;27;45442;-61
2024/03/16 07:48:31;;;;;;;;;0.00;0.00;;;;;13.01;73.17;101476.13;5076109;27;45366;-62
2024/03/16 07:51:00;;;;;;;;;0.25;0.25;;;;;13.02;73.29;101477.88;5067331;28;45288;-62
2024/03/16 07:53:25;;;;;;;;;1.25;1.00;;;;;13.02;73.00;101488.38;5075544;28;45533;-61
2024/03/16 07:55:52;;;;;;;;;1.00;1.00;;;;;13.04;72.96;101494.44;5071806;28;71197;-62
2024/03/16 07:58:18;;;;;;;;;0.00;0.00;;;;;13.05;72.77;101501.41;5078336;27;45673;-65
2024/03/16 08:00:43;;;;;;;;;0.50;0.00;;;;;13.11;72.75;101506.53;5078124;27;45290;-63
2024/03/16 08:03:08;;;;;;;;;1.50;0.00;;;;;13.16;72.48;101516.94;5072876;27;50051;-60
2024/03/16 08:05:34;;;;;;;;;0.75;0.75;;;;;13.17;72.74;101516.03;5070900;28;73196;-62
2024/03/16 08:07:59;;;;;;;;;1.00;1.00;;;;;13.21;72.66;101513.28;5065374;28;45557;-62
2024/03/16 08:10:25;;;;;;;;;2.50;1.00;;;;;13.25;72.50;101514.94;5074868;27;62649;-61
2024/03/16 08:12:50;;;;;;;;;0.00;0.00;;;;;13.32;72.62;101520.06;5073173;27;45374;-64
2024/03/16 08:15:15;;;;;;;;;1.00;1.00;;;;;13.36;72.38;101527.81;5070164;27;76145;-62
2024/03/16 08:17:40;;;;;;;;;1.25;1.00;;;;;13.40;72.21;101536.50;5067994;28;72151;-61
2024/03/16 08:20:08;;;;;;;;;1.00;1.00;;;;;13.44;72.30;101530.28;5071554;27;63908;-60
2024/03/16 08:22:33;;;;;;;;;1.50;1.00;;;;;13.52;71.58;101533.53;5075544;28;45421;-60
2024/03/16 08:24:58;;;;;;;;;4.00;1.00;;;;;13.56;70.87;101531.69;5077168;27;66569;-62
2024/03/16 08:27:24;;;;;;;;;6.25;1.00;;;;;13.64;70.88;101537.63;5081229;27;58371;-63
2024/03/16 08:29:49;;;;;;;;;2.25;1.00;;;;;13.75;70.48;101526.81;5076086;28;45595;-60
2024/03/16 08:32:14;;;;;;;;;3.25;1.00;;;;;13.83;70.31;101538.00;5075077;27;45491;-61
2024/03/16 08:34:40;;;;;;;;;2.00;1.00;;;;;13.90;69.45;101538.66;5076111;27;48309;-62
2024/03/16 08:37:05;;;;;;;;;2.75;1.00;;;;;13.95;69.14;101542.91;5076179;28;61060;-63
2024/03/16 08:39:33;;;;;;;;;2.00;1.00;;;;;13.98;68.96;101545.44;5069762;28;60385;-67
2024/03/16 08:41:59;;;;;;;;;4.25;1.00;;;;;14.01;68.30;101548.00;5072185;28;45630;-65
2024/03/16 08:44:24;;;;;;;;;3.00;1.00;;;;;14.04;67.88;101561.06;5070787;27;77330;-61
2024/03/16 08:46:49;;;;;;;;;0.25;0.00;;;;;14.05;68.28;101564.56;5074963;28;54925;-66
2024/03/16 08:49:15;;;;;;;;;1.00;1.00;;;;;14.02;68.30;101562.00;5067029;28;61830;-63
2024/03/16 08:51:40;;;;;;;;;2.00;0.50;;;;;14.00;69.07;101571.72;5078494;28;45465;-60
2024/03/16 08:54:05;;;;;;;;;0.50;0.50;;;;;13.98;68.88;101574.38;5069470;27;45419;-63
2024/03/16 08:56:31;;;;;;;;;3.75;0.50;;;;;13.99;68.68;101583.16;5077854;27;55493;-63
2024/03/16 08:58:57;;;;;;;;;3.00;1.75;;;;;13.96;68.80;101576.22;5079405;28;45455;-63
2024/03/16 09:01:22;;;;;;;;;2.00;1.00;;;;;14.01;69.04;101584.84;5079114;28;45639;-62
2024/03/16 09:03:47;;;;;;;;;1.50;1.50;;;;;14.03;68.51;101592.69;5081282;27;51610;-61
2024/03/16 09:06:14;;;;;;;;;2.00;2.00;;;;;14.07;68.67;101586.44;5077551;27;73049;-62
2024/03/16 09:08:39;;;;;;;;;2.00;1.00;;;;;14.15;68.15;101589.72;5048437;28;45259;-61
2024/03/16 09:11:04;;;;;;;;;1.00;1.00;;;;;14.26;68.02;101585.94;5081983;28;45224;-62
2024/03/16 09:13:33;;;;;;;;;1.00;1.00;;;;;14.32;67.84;101583.09;5069148;27;45285;-62
2024/03/16 09:15:59;;;;;;;;;2.00;2.00;;;;;14.37;67.68;101589.09;5063597;28;45506;-63
2024/03/16 09:18:25;;;;;;;;;6.25;6.25;;;;;14.51;67.81;101597.47;5078484;27;45291;-63
2024/03/16 09:20:50;;;;;;;;;4.50;4.50;;;;;14.58;67.30;101606.94;5074975;28;74159;-63
2024/03/16 09:23:15;;;;;;;;;4.00;2.00;;;;;14.59;66.70;101600.78;5078206;27;48175;-63
2024/03/16 09:25:41;;;;;;;;;5.25;4.25;;;;;14.60;66.50;101594.56;5073137;27;75088;-63
2024/03/16 09:28:07;;;;;;;;;3.00;2.00;;;;;14.64;66.05;101608.50;5074429;27;45588;-62
2024/03/16 09:30:33;;;;;;;;;2.00;1.00;;;;;14.57;65.48;101610.47;5074993;27;45520;-62
2024/03/16 09:32:59;;;;;;;;;2.25;1.75;;;;;14.53;65.24;101607.94;5073697;28;45409;-62
2024/03/16 09:35:26;;;;;;;;;3.00;2.00;;;;;14.52;65.28;101616.75;5076102;27;45325;-62
2024/03/16 09:37:51;;;;;;;;;1.00;1.00;;;;;14.52;64.10;101609.72;5072111;27;45214;-62
2024/03/16 09:40:17;;;;;;;;;2.75;2.75;;;;;14.54;64.12;101612.31;5072055;27;45236;-61
2024/03/16 09:42:42;;;;;;;;;2.00;0.50;;;;;14.54;64.06;101613.19;5076761;28;46391;-62
2024/03/16 09:45:18;;;;;;;;;1.50;1.00;;;;;14.53;63.59;101608.81;5076129;28;49781;-64
2024/03/16 09:47:47;;;;;;;;;1.50;1.50;;;;;14.49;63.34;101612.44;5080408;27;45372;-62
2024/03/16 09:50:14;;;;;;;;;5.00;2.00;;;;;14.45;63.07;101605.56;5069109;27;45453;-62
2024/03/16 09:52:40;;;;;;;;;4.50;1.50;;;;;14.41;62.63;101606.53;5070603;27;46043;-62
2024/03/16 09:55:09;;;;;;;;;2.50;2.00;;;;;14.41;62.07;101606.53;5074856;27;45621;-62
2024/03/16 09:57:36;;;;;;;;;2.00;1.50;;;;;14.35;61.84;101607.56;5074288;27;45602;-62
2024/03/16 10:00:05;;;;;;;;;5.25;3.00;;;;;14.38;62.51;101614.53;5076172;27;46680;-62
2024/03/16 10:02:30;;;;;;;;;3.00;3.00;;;;;14.41;61.62;101619.69;5071480;28;47297;-62
2024/03/16 10:04:56;;;;;;;;;2.00;2.00;;;;;14.46;61.41;101609.91;5073413;27;45388;-62
2024/03/16 10:07:21;;;;;;;;;3.50;1.25;;;;;14.51;61.45;101613.25;5079550;27;45423;-62
2024/03/16 10:09:53;;;;;;;;;2.00;2.00;;;;;14.54;61.06;101618.44;5075398;27;45611;-62
2024/03/16 10:12:23;;;;;;;;;3.50;3.50;;;;;14.49;60.44;101627.41;5074835;27;45364;-63
2024/03/16 10:15:00;;;;;;;;;6.00;3.25;;;;;14.41;60.48;101627.59;5072519;27;45314;-63
2024/03/16 10:17:25;;;;;;;;;1.75;1.00;;;;;14.29;59.33;101636.72;5070713;27;45458;-63
2024/03/16 10:19:52;;;;;;;;;1.00;1.00;;;;;14.17;59.96;101643.19;5071064;27;72161;-62
2024/03/16 10:22:17;;;;;;;;;3.50;1.00;;;;;14.18;59.41;101636.13;5079673;27;47283;-62
2024/03/16 10:24:43;;;;;;;;;4.00;1.25;;;;;14.30;59.81;101641.06;5069050;27;45465;-62
2024/03/16 10:27:11;;;;;;;;;1.75;0.50;;;;;14.39;59.33;101632.06;5070713;28;68122;-62
2024/03/16 10:29:39;;;;;;;;;2.00;2.00;;;;;14.42;58.74;101631.97;5079174;27;45426;-63
2024/03/16 10:32:05;;;;;;;;;2.50;0.50;;;;;14.32;58.52;101635.75;5074130;27;46390;-63
2024/03/16 10:34:31;;;;;;;;;1.00;1.00;;;;;14.19;58.31;101633.47;5067330;27;64466;-62
2024/03/16 10:36:57;;;;;;;;;2.25;1.25;;;;;14.15;58.56;101639.75;5074975;27;45335;-63
2024/03/16 10:39:22;;;;;;;;;2.50;1.50;;;;;14.22;57.93;101648.34;5071515;27;45748;-63
2024/03/16 10:41:48;;;;;;;;;2.00;2.00;;;;;14.34;58.04;101648.00;5074788;27;45433;-63
2024/03/16 10:44:14;;;;;;;;;1.75;1.75;;;;;14.55;58.50;101661.44;5074425;28;72051;-63
2024/03/16 10:46:42;;;;;;;;;1.75;0.00;;;;;14.77;57.50;101659.94;5073102;27;45393;-63
2024/03/16 10:49:07;;;;;;;;;0.00;0.00;;;;;14.97;57.20;101656.69;5078917;27;45591;-63
2024/03/16 10:51:32;;;;;;;;;1.50;1.00;;;;;15.15;56.60;101649.13;5057790;27;75548;-63
2024/03/16 10:53:58;;;;;;;;;3.50;1.50;;;;;15.33;55.86;101640.66;5066002;27;50243;-62
2024/03/16 10:56:29;;;;;;;;;3.00;1.50;;;;;15.62;55.78;101648.53;5077866;27;45407;-62
2024/03/16 10:58:55;;;;;;;;;1.50;0.50;;;;;15.94;55.32;101648.31;5077083;27;45450;-62
2024/03/16 11:01:21;;;;;;;;;1.00;1.00;;;;;16.18;54.70;101639.56;5059032;28;47401;-62
2024/03/16 11:03:51;;;;;;;;;3.00;1.00;;;;;16.34;54.56;101643.38;5080371;27;65626;-63
2024/03/16 11:06:21;;;;;;;;;1.75;1.00;;;;;16.47;53.54;101649.09;5074647;27;45418;-63
2024/03/16 11:08:48;;;;;;;;;2.00;0.00;;;;;16.62;53.35;101650.28;5076520;27;45189;-62
2024/03/16 11:11:24;;;;;;;;;5.50;4.00;;;;;16.82;53.34;101660.97;5078751;27;45427;-64
2024/03/16 11:13:58;;;;;;;;;5.75;2.25;;;;;16.93;52.87;101660.59;5065896;27;45437;-63
2024/03/16 11:16:28;;;;;;;;;4.75;2.00;;;;;16.99;52.33;101654.19;5079907;27;45379;-62
2024/03/16 11:19:01;;;;;;;;;2.00;1.00;;;;;17.08;52.41;101657.31;5068424;27;45429;-63